createdAt,value
2016-11-15T00:00:08.782Z,48.83
2016-11-15T00:00:49.430Z,49.02
2016-11-15T00:01:30.166Z,49.22
2016-11-15T00:02:10.800Z,49.51
2016-11-15T00:02:51.504Z,49.6
2016-11-15T00:03:32.231Z,49.79
2016-11-15T00:04:12.962Z,49.6
2016-11-15T00:04:53.667Z,49.7
2016-11-15T00:05:34.293Z,49.7
2016-11-15T00:06:14.863Z,49.79
2016-11-15T00:06:55.585Z,49.79
2016-11-15T00:07:36.230Z,49.99
2016-11-15T00:08:16.913Z,49.89
2016-11-15T00:08:57.735Z,49.89
2016-11-15T00:09:38.513Z,50.18
2016-11-15T00:10:19.222Z,50.18
2016-11-15T00:10:59.950Z,49.89
2016-11-15T00:11:40.647Z,50.09
2016-11-15T00:12:21.377Z,49.99
2016-11-15T00:13:02.070Z,50.47
2016-11-15T00:13:42.698Z,50.37
2016-11-15T00:14:23.558Z,50.47
2016-11-15T00:15:04.258Z,50.37
2016-11-15T00:15:45.068Z,50.76
2016-11-15T00:16:25.800Z,50.76
2016-11-15T00:17:06.489Z,50.66
2016-11-15T00:17:47.175Z,50.57
2016-11-15T00:18:27.892Z,50.54
2016-11-15T00:19:08.609Z,50.57
2016-11-15T00:19:49.273Z,50.45
2016-11-15T00:20:30.009Z,50.54
2016-11-15T00:21:10.625Z,50.45
2016-11-15T00:21:51.245Z,50.57
2016-11-15T00:22:31.943Z,50.35
2016-11-15T00:23:12.623Z,50.63
2016-11-15T00:23:53.358Z,50.63
2016-11-15T00:24:34.977Z,50.63
2016-11-15T00:25:15.166Z,50.63
2016-11-15T00:25:55.833Z,50.83
2016-11-15T00:26:36.534Z,50.54
2016-11-15T00:27:17.258Z,50.83
2016-11-15T00:27:57.892Z,50.73
2016-11-15T00:28:38.597Z,50.73
2016-11-15T00:29:19.258Z,50.83
2016-11-15T00:29:59.986Z,50.83
2016-11-15T00:30:40.694Z,50.83
2016-11-15T00:31:21.308Z,50.73
2016-11-15T00:32:02.016Z,50.83
2016-11-15T00:32:42.611Z,51.02
2016-11-15T00:33:23.333Z,51.02
2016-11-15T00:34:04.045Z,51.12
2016-11-15T00:34:44.836Z,51.02
2016-11-15T00:35:25.622Z,50.93
2016-11-15T00:36:06.312Z,50.83
2016-11-15T00:36:47.058Z,51.02
2016-11-15T00:37:27.712Z,51.02
2016-11-15T00:38:08.433Z,51.12
2016-11-15T00:38:49.129Z,51.12
2016-11-15T00:39:29.781Z,51.12
2016-11-15T00:40:10.421Z,51.21
2016-11-15T00:40:51.105Z,51.12
2016-11-15T00:41:31.871Z,51.41
2016-11-15T00:42:12.592Z,51.21
2016-11-15T00:42:53.376Z,51.21
2016-11-15T00:43:34.093Z,51.02
2016-11-15T00:44:14.769Z,51.21
2016-11-15T00:44:55.421Z,51.21
2016-11-15T00:45:36.069Z,51.21
2016-11-15T00:46:16.666Z,51.21
2016-11-15T00:46:57.394Z,51.31
2016-11-15T00:47:38.049Z,51.41
2016-11-15T00:48:18.748Z,51.21
2016-11-15T00:48:59.447Z,51.48
2016-11-15T00:49:40.059Z,51.21
2016-11-15T00:50:20.687Z,51.38
2016-11-15T00:51:01.399Z,51.38
2016-11-15T00:51:42.119Z,51.19
2016-11-15T00:52:22.793Z,51.29
2016-11-15T00:53:03.429Z,51.38
2016-11-15T00:53:44.065Z,51.29
2016-11-15T00:54:24.696Z,51.57
2016-11-15T00:55:05.404Z,51.38
2016-11-15T00:55:46.089Z,51.48
2016-11-15T00:56:26.749Z,51.48
2016-11-15T00:57:07.495Z,51.29
2016-11-15T00:57:48.111Z,51.96
2016-11-15T00:58:28.805Z,51.57
2016-11-15T00:59:09.521Z,51.29
2016-11-15T00:59:50.176Z,51.57
2016-11-15T01:00:30.836Z,52.06
2016-11-15T01:01:11.481Z,51.96
2016-11-15T01:01:52.108Z,51.86
2016-11-15T01:02:32.775Z,51.48
2016-11-15T01:03:13.513Z,51.67
2016-11-15T01:03:54.160Z,51.67
2016-11-15T01:04:34.787Z,51.67
2016-11-15T01:05:15.553Z,51.76
2016-11-15T01:05:56.202Z,52.25
2016-11-15T01:06:36.832Z,51.86
2016-11-15T01:07:17.494Z,51.96
2016-11-15T01:07:58.170Z,51.48
2016-11-15T01:08:38.873Z,51.76
2016-11-15T01:09:19.544Z,51.96
2016-11-15T01:10:00.232Z,51.57
2016-11-15T01:10:40.864Z,51.48
2016-11-15T01:11:21.496Z,51.57
2016-11-15T01:12:02.122Z,51.86
2016-11-15T01:12:42.825Z,51.57
2016-11-15T01:13:23.472Z,52.06
2016-11-15T01:14:04.110Z,52.15
2016-11-15T01:14:44.870Z,51.67
2016-11-15T01:15:25.540Z,52.06
2016-11-15T01:16:06.188Z,51.67
2016-11-15T01:16:46.939Z,51.96
2016-11-15T01:17:27.590Z,51.76
2016-11-15T01:18:08.332Z,51.86
2016-11-15T01:18:49.076Z,52.06
2016-11-15T01:19:29.784Z,51.96
2016-11-15T01:20:10.569Z,52.34
2016-11-15T01:20:51.493Z,52.15
2016-11-15T01:21:32.201Z,51.86
2016-11-15T01:22:12.883Z,52.63
2016-11-15T01:22:53.594Z,52.34
2016-11-15T01:23:34.283Z,52.25
2016-11-15T01:24:14.931Z,51.67
2016-11-15T01:24:55.589Z,51.96
2016-11-15T01:25:36.227Z,52.06
2016-11-15T01:26:16.941Z,52.34
2016-11-15T01:26:57.796Z,52.06
2016-11-15T01:27:38.571Z,51.76
2016-11-15T01:28:19.424Z,52.34
2016-11-15T01:29:00.161Z,52.44
2016-11-15T01:29:40.843Z,52.34
2016-11-15T01:30:21.419Z,52.34
2016-11-15T01:31:02.028Z,52.34
2016-11-15T01:31:42.769Z,52.25
2016-11-15T01:32:23.457Z,52.44
2016-11-15T01:33:04.201Z,52.44
2016-11-15T01:33:44.883Z,52.25
2016-11-15T01:34:25.688Z,52.54
2016-11-15T01:35:06.346Z,52.44
2016-11-15T01:35:46.922Z,52.34
2016-11-15T01:36:27.587Z,52.44
2016-11-15T01:37:08.272Z,52.54
2016-11-15T01:37:49.002Z,52.25
2016-11-15T01:38:29.640Z,52.54
2016-11-15T01:39:10.504Z,52.25
2016-11-15T01:39:51.206Z,52.54
2016-11-15T01:40:31.864Z,52.44
2016-11-15T01:41:12.464Z,52.15
2016-11-15T01:41:53.124Z,52.63
2016-11-15T01:42:33.757Z,52.34
2016-11-15T01:43:14.395Z,52.54
2016-11-15T01:43:55.085Z,52.54
2016-11-15T01:44:35.797Z,52.25
2016-11-15T01:45:16.438Z,52.34
2016-11-15T01:45:57.156Z,52.73
2016-11-15T01:46:37.754Z,52.73
2016-11-15T01:47:18.416Z,52.83
2016-11-15T01:47:59.062Z,53.11
2016-11-15T01:48:39.816Z,52.7
2016-11-15T01:49:20.510Z,53.11
2016-11-15T01:50:01.260Z,52.54
2016-11-15T01:50:41.992Z,53.19
2016-11-15T01:51:22.721Z,53.19
2016-11-15T01:52:03.514Z,52.99
2016-11-15T01:52:44.199Z,52.99
2016-11-15T01:53:24.938Z,52.99
2016-11-15T01:54:05.608Z,52.7
2016-11-15T01:54:46.327Z,52.99
2016-11-15T01:55:27.035Z,52.99
2016-11-15T01:56:07.692Z,53.19
2016-11-15T01:56:48.346Z,52.51
2016-11-15T01:57:29.114Z,53.09
2016-11-15T01:58:09.771Z,53.19
2016-11-15T01:58:50.492Z,53.09
2016-11-15T01:59:31.200Z,52.89
2016-11-15T02:00:12.009Z,53.09
2016-11-15T02:00:52.743Z,52.99
2016-11-15T02:01:33.451Z,52.99
2016-11-15T02:02:14.147Z,52.99
2016-11-15T02:02:54.872Z,52.99
2016-11-15T02:03:35.472Z,52.89
2016-11-15T02:04:16.239Z,52.99
2016-11-15T02:04:56.982Z,52.99
2016-11-15T02:06:49.736Z,52.89
2016-11-15T02:07:30.443Z,52.61
2016-11-15T02:08:11.111Z,52.99
2016-11-15T02:08:51.691Z,52.7
2016-11-15T02:09:32.336Z,52.8
2016-11-15T02:10:13.076Z,53.09
2016-11-15T02:10:53.708Z,52.7
2016-11-15T02:11:34.402Z,52.89
2016-11-15T02:12:14.968Z,52.8
2016-11-15T02:12:55.576Z,52.89
2016-11-15T02:13:36.202Z,52.7
2016-11-15T02:14:16.902Z,52.8
2016-11-15T02:14:57.551Z,52.8
2016-11-15T02:15:38.276Z,52.89
2016-11-15T02:16:18.897Z,52.7
2016-11-15T02:16:59.558Z,52.61
2016-11-15T02:17:40.224Z,52.61
2016-11-15T02:18:20.936Z,52.99
2016-11-15T02:19:01.592Z,52.8
2016-11-15T02:19:42.262Z,52.7
2016-11-15T02:20:22.873Z,52.8
2016-11-15T02:21:03.621Z,52.89
2016-11-15T02:21:44.409Z,52.89
2016-11-15T02:22:25.038Z,52.99
2016-11-15T02:23:05.691Z,52.89
2016-11-15T02:23:46.606Z,52.61
2016-11-15T02:24:27.199Z,52.8
2016-11-15T02:25:07.914Z,52.8
2016-11-15T02:25:48.573Z,52.8
2016-11-15T02:26:29.231Z,52.7
2016-11-15T02:27:09.911Z,52.8
2016-11-15T02:27:50.599Z,52.89
2016-11-15T02:28:31.311Z,52.8
2016-11-15T02:29:12.063Z,52.8
2016-11-15T02:29:52.749Z,52.8
2016-11-15T02:30:33.515Z,53.09
2016-11-15T02:31:14.181Z,53.28
2016-11-15T02:31:54.943Z,53.28
2016-11-15T02:32:35.521Z,52.61
2016-11-15T02:33:16.219Z,52.7
2016-11-15T02:33:56.869Z,52.8
2016-11-15T02:34:37.541Z,52.8
2016-11-15T02:35:18.280Z,52.7
2016-11-15T02:35:59.003Z,53.28
2016-11-15T02:36:39.621Z,52.89
2016-11-15T02:37:20.272Z,53.28
2016-11-15T02:38:00.982Z,53.09
2016-11-15T02:38:41.700Z,53.19
2016-11-15T02:39:22.385Z,53.28
2016-11-15T02:40:03.073Z,53.19
2016-11-15T02:40:43.762Z,53.09
2016-11-15T02:41:24.388Z,53.19
2016-11-15T02:42:05.072Z,53.19
2016-11-15T02:42:45.776Z,53.09
2016-11-15T02:43:26.498Z,53.06
2016-11-15T02:44:07.180Z,52.77
2016-11-15T02:44:47.900Z,53.09
2016-11-15T02:45:28.478Z,53.16
2016-11-15T02:46:10.052Z,53.09
2016-11-15T02:46:50.782Z,53.06
2016-11-15T02:47:31.547Z,53.06
2016-11-15T02:48:12.188Z,52.99
2016-11-15T02:48:52.820Z,52.99
2016-11-15T02:49:33.474Z,53.09
2016-11-15T02:50:14.158Z,53.19
2016-11-15T02:50:54.859Z,52.99
2016-11-15T02:51:35.477Z,52.89
2016-11-15T02:52:16.181Z,52.99
2016-11-15T02:52:56.849Z,52.89
2016-11-15T02:53:37.451Z,53.28
2016-11-15T02:54:18.157Z,53.09
2016-11-15T02:54:58.791Z,52.97
2016-11-15T02:55:39.539Z,53.25
2016-11-15T02:56:20.170Z,53.16
2016-11-15T02:57:00.833Z,53.25
2016-11-15T02:57:41.541Z,53.09
2016-11-15T02:58:22.219Z,53.06
2016-11-15T02:59:02.889Z,53.06
2016-11-15T02:59:43.476Z,53.09
2016-11-15T03:00:24.125Z,53.06
2016-11-15T03:01:04.862Z,53.06
2016-11-15T03:01:45.620Z,53.35
2016-11-15T03:02:26.240Z,53.06
2016-11-15T03:03:06.937Z,53.38
2016-11-15T03:03:47.642Z,53.19
2016-11-15T03:04:28.382Z,53.16
2016-11-15T03:05:09.056Z,53.06
2016-11-15T03:05:49.722Z,53.16
2016-11-15T03:06:30.480Z,53.06
2016-11-15T03:07:11.050Z,53.35
2016-11-15T03:07:51.762Z,53.25
2016-11-15T03:08:32.567Z,53.25
2016-11-15T03:09:13.284Z,53.25
2016-11-15T03:09:53.941Z,53.35
2016-11-15T03:10:34.611Z,53.35
2016-11-15T03:11:15.309Z,53.06
2016-11-15T03:11:56.009Z,53.25
2016-11-15T03:12:36.695Z,53.06
2016-11-15T03:13:17.333Z,53.35
2016-11-15T03:13:58.017Z,53.35
2016-11-15T03:14:38.662Z,53.45
2016-11-15T03:15:19.397Z,52.97
2016-11-15T03:16:00.074Z,53.06
2016-11-15T03:16:40.725Z,52.97
2016-11-15T03:17:21.292Z,52.87
2016-11-15T03:18:01.960Z,53.54
2016-11-15T03:18:42.624Z,53.25
2016-11-15T03:19:23.322Z,53.45
2016-11-15T03:20:04.001Z,53.16
2016-11-15T03:20:44.804Z,53.64
2016-11-15T03:21:25.388Z,53.25
2016-11-15T03:22:06.172Z,53.25
2016-11-15T03:22:46.892Z,53.45
2016-11-15T03:23:27.542Z,53.45
2016-11-15T03:24:08.117Z,53.35
2016-11-15T03:24:48.882Z,53.35
2016-11-15T03:25:29.608Z,53.16
2016-11-15T03:26:11.043Z,53.35
2016-11-15T03:26:51.761Z,53.45
2016-11-15T03:27:32.459Z,53.45
2016-11-15T03:28:13.197Z,53.35
2016-11-15T03:28:53.899Z,53.35
2016-11-15T03:29:34.725Z,53.45
2016-11-15T03:30:15.465Z,53.35
2016-11-15T03:30:56.127Z,53.54
2016-11-15T03:31:36.714Z,53.54
2016-11-15T03:32:17.409Z,53.35
2016-11-15T03:32:58.053Z,53.45
2016-11-15T03:33:38.675Z,53.25
2016-11-15T03:34:19.266Z,53.54
2016-11-15T03:34:59.932Z,53.45
2016-11-15T03:35:40.652Z,53.25
2016-11-15T03:36:21.268Z,53.54
2016-11-15T03:37:01.978Z,54.12
2016-11-15T03:37:42.557Z,54.02
2016-11-15T03:38:23.354Z,53.45
2016-11-15T03:39:04.032Z,53.45
2016-11-15T03:39:44.724Z,54.12
2016-11-15T03:40:28.281Z,53.25
2016-11-15T03:41:08.992Z,54.02
2016-11-15T03:41:49.654Z,53.54
2016-11-15T03:42:30.415Z,53.92
2016-11-15T03:43:11.084Z,54.02
2016-11-15T03:43:51.725Z,53.92
2016-11-15T03:44:38.997Z,54.02
2016-11-15T03:45:19.632Z,54.02
2016-11-15T03:46:00.259Z,53.92
2016-11-15T03:46:40.907Z,53.92
2016-11-15T03:47:21.657Z,53.64
2016-11-15T03:48:02.402Z,53.64
2016-11-15T03:48:43.063Z,53.92
2016-11-15T03:49:23.817Z,53.74
2016-11-15T03:50:04.516Z,53.74
2016-11-15T03:50:45.163Z,53.64
2016-11-15T03:51:25.833Z,53.92
2016-11-15T03:52:06.596Z,53.83
2016-11-15T03:52:47.365Z,53.83
2016-11-15T03:53:28.045Z,53.74
2016-11-15T03:54:08.693Z,53.74
2016-11-15T03:54:49.410Z,53.83
2016-11-15T03:55:30.226Z,53.74
2016-11-15T03:56:10.919Z,53.92
2016-11-15T03:56:51.659Z,53.74
2016-11-15T03:57:32.270Z,53.74
2016-11-15T03:58:13.002Z,53.74
2016-11-15T03:58:53.719Z,53.83
2016-11-15T03:59:34.358Z,53.54
2016-11-15T04:00:15.042Z,53.74
2016-11-15T04:00:55.791Z,53.74
2016-11-15T04:01:36.472Z,53.74
2016-11-15T04:02:17.156Z,53.83
2016-11-15T04:02:57.881Z,53.92
2016-11-15T04:03:38.675Z,53.83
2016-11-15T04:04:19.304Z,53.64
2016-11-15T04:04:59.949Z,53.83
2016-11-15T04:05:40.615Z,53.74
2016-11-15T04:06:21.310Z,53.83
2016-11-15T04:07:01.999Z,53.83
2016-11-15T04:07:42.762Z,53.83
2016-11-15T04:08:23.539Z,53.83
2016-11-15T04:09:04.387Z,53.74
2016-11-15T04:09:45.070Z,53.92
2016-11-15T04:10:25.810Z,53.83
2016-11-15T04:11:06.537Z,53.74
2016-11-15T04:11:47.187Z,53.92
2016-11-15T04:12:27.838Z,53.64
2016-11-15T04:13:08.514Z,54.02
2016-11-15T04:13:49.107Z,53.92
2016-11-15T04:14:29.783Z,53.83
2016-11-15T04:15:10.560Z,53.83
2016-11-15T04:15:51.225Z,53.92
2016-11-15T04:16:31.752Z,54
2016-11-15T04:17:12.600Z,53.92
2016-11-15T04:17:53.209Z,53.92
2016-11-15T04:18:33.833Z,53.92
2016-11-15T04:19:14.673Z,53.74
2016-11-15T04:19:56.323Z,53.74
2016-11-15T04:20:37.153Z,54.02
2016-11-15T04:21:17.794Z,53.92
2016-11-15T04:21:58.530Z,53.92
2016-11-15T04:22:39.300Z,54.02
2016-11-15T04:23:20.038Z,53.83
2016-11-15T04:24:00.754Z,53.74
2016-11-15T04:24:41.418Z,53.74
2016-11-15T04:25:22.064Z,53.74
2016-11-15T04:26:02.750Z,53.74
2016-11-15T04:26:43.506Z,53.83
2016-11-15T04:27:24.265Z,53.83
2016-11-15T04:28:04.930Z,53.74
2016-11-15T04:28:45.667Z,53.8
2016-11-15T04:29:26.263Z,53.74
2016-11-15T04:30:07.048Z,53.74
2016-11-15T04:30:47.806Z,53.74
2016-11-15T04:31:28.640Z,53.74
2016-11-15T04:32:09.366Z,53.54
2016-11-15T04:32:50.123Z,53.8
2016-11-15T04:33:30.713Z,53.7
2016-11-15T04:34:11.352Z,53.83
2016-11-15T04:34:52.130Z,53.83
2016-11-15T04:35:32.816Z,53.9
2016-11-15T04:36:13.511Z,53.7
2016-11-15T04:36:54.253Z,53.8
2016-11-15T04:37:34.871Z,53.7
2016-11-15T04:38:15.615Z,53.8
2016-11-15T04:38:56.279Z,53.92
2016-11-15T04:39:37.000Z,53.92
2016-11-15T04:40:17.678Z,53.7
2016-11-15T04:40:58.451Z,54.28
2016-11-15T04:41:39.159Z,54.09
2016-11-15T04:42:19.857Z,54.28
2016-11-15T04:43:00.812Z,53.9
2016-11-15T04:43:41.661Z,54.19
2016-11-15T04:44:22.427Z,54.12
2016-11-15T04:45:03.104Z,54.28
2016-11-15T04:45:43.815Z,54.19
2016-11-15T04:46:24.563Z,54.28
2016-11-15T04:47:05.320Z,54.5
2016-11-15T04:47:46.027Z,54.28
2016-11-15T04:48:26.784Z,54.19
2016-11-15T04:49:07.592Z,54.28
2016-11-15T04:49:48.289Z,54.19
2016-11-15T04:50:28.968Z,54.09
2016-11-15T04:51:09.664Z,54.09
2016-11-15T04:51:50.378Z,54.09
2016-11-15T04:52:31.124Z,54.28
2016-11-15T04:53:11.910Z,54.19
2016-11-15T04:53:52.662Z,54.47
2016-11-15T04:54:33.369Z,54.28
2016-11-15T04:55:14.084Z,53.8
2016-11-15T04:55:54.750Z,54.28
2016-11-15T04:56:35.419Z,54.28
2016-11-15T04:57:16.110Z,54.28
2016-11-15T04:57:56.787Z,54.28
2016-11-15T04:58:37.524Z,54.38
2016-11-15T04:59:18.248Z,54.28
2016-11-15T04:59:58.897Z,54.19
2016-11-15T05:00:39.638Z,54.28
2016-11-15T05:01:20.308Z,54.28
2016-11-15T05:02:00.976Z,54.47
2016-11-15T05:02:41.656Z,54.19
2016-11-15T05:03:22.418Z,54.28
2016-11-15T05:04:03.184Z,54.28
2016-11-15T05:04:43.897Z,54.19
2016-11-15T05:05:24.537Z,54.28
2016-11-15T05:06:05.293Z,54.19
2016-11-15T05:06:45.893Z,54.19
2016-11-15T05:07:26.639Z,53.9
2016-11-15T05:08:08.175Z,54.38
2016-11-15T05:08:49.012Z,54.28
2016-11-15T05:09:29.684Z,54.19
2016-11-15T05:10:10.465Z,54
2016-11-15T05:10:51.205Z,54.38
2016-11-15T05:11:31.890Z,54.28
2016-11-15T05:12:12.694Z,53.9
2016-11-15T05:12:53.359Z,54
2016-11-15T05:13:34.069Z,54.19
2016-11-15T05:14:14.800Z,54.19
2016-11-15T05:14:56.036Z,54.28
2016-11-15T05:15:36.724Z,54.38
2016-11-15T05:16:17.489Z,54.19
2016-11-15T05:16:58.199Z,54.38
2016-11-15T05:17:38.880Z,54
2016-11-15T05:18:19.683Z,54.28
2016-11-15T05:19:00.357Z,54.09
2016-11-15T05:19:41.101Z,54.47
2016-11-15T05:20:21.799Z,54.28
2016-11-15T05:21:02.510Z,54.38
2016-11-15T05:21:43.170Z,54.09
2016-11-15T05:22:23.904Z,54.38
2016-11-15T05:23:04.558Z,54.09
2016-11-15T05:23:45.380Z,54.19
2016-11-15T05:24:26.088Z,54.28
2016-11-15T05:25:06.902Z,54.19
2016-11-15T05:25:47.611Z,54.09
2016-11-15T05:26:28.342Z,54.09
2016-11-15T05:27:09.227Z,54.38
2016-11-15T05:27:50.005Z,54.28
2016-11-15T05:28:30.781Z,54.09
2016-11-15T05:29:11.522Z,54.28
2016-11-15T05:29:52.360Z,54.38
2016-11-15T05:30:33.131Z,54.28
2016-11-15T05:31:13.770Z,54.28
2016-11-15T05:31:54.615Z,54.19
2016-11-15T05:32:35.354Z,54.09
2016-11-15T05:33:16.026Z,54.09
2016-11-15T05:33:56.737Z,54.28
2016-11-15T05:34:37.474Z,54.28
2016-11-15T05:35:18.197Z,54.28
2016-11-15T05:35:58.926Z,54.28
2016-11-15T05:36:39.565Z,54.28
2016-11-15T05:37:20.389Z,54.09
2016-11-15T05:38:01.149Z,54.28
2016-11-15T05:38:41.871Z,54.28
2016-11-15T05:39:22.654Z,54.09
2016-11-15T05:40:03.411Z,54.09
2016-11-15T05:40:44.154Z,54.09
2016-11-15T05:41:25.073Z,54.09
2016-11-15T05:42:05.864Z,54.09
2016-11-15T05:42:46.599Z,54.28
2016-11-15T05:43:27.406Z,54.28
2016-11-15T05:44:08.143Z,54.28
2016-11-15T05:44:48.935Z,54.09
2016-11-15T05:45:29.729Z,54
2016-11-15T05:46:10.531Z,54.28
2016-11-15T05:46:51.297Z,54
2016-11-15T05:47:32.855Z,54.09
2016-11-15T05:48:13.585Z,54.09
2016-11-15T05:48:54.263Z,54.19
2016-11-15T05:49:35.030Z,54
2016-11-15T05:50:15.762Z,54.09
2016-11-15T05:50:56.435Z,54.28
2016-11-15T05:51:37.056Z,54.09
2016-11-15T05:52:17.753Z,54
2016-11-15T05:52:58.477Z,54
2016-11-15T05:53:39.178Z,54.09
2016-11-15T05:54:20.070Z,54
2016-11-15T05:55:00.736Z,54.09
2016-11-15T05:55:41.450Z,54
2016-11-15T05:56:22.071Z,54.09
2016-11-15T05:57:02.838Z,54.19
2016-11-15T05:57:43.593Z,54.09
2016-11-15T05:58:24.426Z,54.19
2016-11-15T05:59:05.137Z,54.09
2016-11-15T05:59:46.417Z,54
2016-11-15T06:00:26.748Z,54.19
2016-11-15T06:01:07.456Z,54.19
2016-11-15T06:01:48.147Z,54
2016-11-15T06:02:28.832Z,54.09
2016-11-15T06:03:09.510Z,54.19
2016-11-15T06:03:50.248Z,54.09
2016-11-15T06:04:30.976Z,54.09
2016-11-15T06:05:11.728Z,54
2016-11-15T06:05:52.520Z,54
2016-11-15T06:06:33.158Z,54.19
2016-11-15T06:07:13.962Z,53.9
2016-11-15T06:07:54.681Z,54.09
2016-11-15T06:08:35.515Z,54
2016-11-15T06:09:16.461Z,54
2016-11-15T06:09:57.287Z,54.19
2016-11-15T06:10:38.036Z,53.9
2016-11-15T06:11:18.799Z,54.09
2016-11-15T06:11:59.523Z,54
2016-11-15T06:12:40.249Z,54.09
2016-11-15T06:13:21.034Z,54.09
2016-11-15T06:14:01.739Z,54
2016-11-15T06:14:42.460Z,53.9
2016-11-15T06:15:23.175Z,54.09
2016-11-15T06:16:03.963Z,54.09
2016-11-15T06:16:44.662Z,54.09
2016-11-15T06:17:25.364Z,54.09
2016-11-15T06:18:06.096Z,54
2016-11-15T06:18:46.833Z,54.19
2016-11-15T06:19:27.488Z,54.09
2016-11-15T06:20:08.309Z,54
2016-11-15T06:20:48.995Z,54.09
2016-11-15T06:21:30.288Z,53.9
2016-11-15T06:22:10.953Z,53.9
2016-11-15T06:22:51.632Z,54
2016-11-15T06:23:32.311Z,54.19
2016-11-15T06:24:13.036Z,54.09
2016-11-15T06:24:53.753Z,54.19
2016-11-15T06:25:34.464Z,53.8
2016-11-15T06:26:15.116Z,54.09
2016-11-15T06:26:55.912Z,54.09
2016-11-15T06:27:36.574Z,54.09
2016-11-15T06:28:17.274Z,53.8
2016-11-15T06:28:58.165Z,53.8
2016-11-15T06:29:38.912Z,53.9
2016-11-15T06:30:19.676Z,54.19
2016-11-15T06:31:00.366Z,54.09
2016-11-15T06:31:41.090Z,54.19
2016-11-15T06:32:21.726Z,53.9
2016-11-15T06:33:02.482Z,53.8
2016-11-15T06:33:43.207Z,54.19
2016-11-15T06:34:23.933Z,53.8
2016-11-15T06:35:04.810Z,53.9
2016-11-15T06:35:45.425Z,54
2016-11-15T06:36:26.105Z,54
2016-11-15T06:37:06.945Z,54.09
2016-11-15T06:37:47.698Z,54.19
2016-11-15T06:38:28.433Z,54.09
2016-11-15T06:39:09.050Z,54.09
2016-11-15T06:39:49.825Z,54.09
2016-11-15T06:40:30.580Z,54.09
2016-11-15T06:41:11.392Z,53.8
2016-11-15T06:41:52.188Z,53.9
2016-11-15T06:42:32.935Z,54.09
2016-11-15T06:43:13.741Z,54.09
2016-11-15T06:43:54.605Z,54
2016-11-15T06:44:35.333Z,54.19
2016-11-15T06:45:16.086Z,54
2016-11-15T06:45:56.723Z,54
2016-11-15T06:46:37.475Z,54.09
2016-11-15T06:47:18.109Z,54.09
2016-11-15T06:47:58.803Z,53.8
2016-11-15T06:48:39.456Z,54.28
2016-11-15T06:49:20.235Z,54.19
2016-11-15T06:50:00.992Z,54
2016-11-15T06:50:41.707Z,54.19
2016-11-15T06:51:22.478Z,53.8
2016-11-15T06:52:03.340Z,54.09
2016-11-15T06:52:44.057Z,53.9
2016-11-15T06:53:24.731Z,54.09
2016-11-15T06:54:05.500Z,53.9
2016-11-15T06:54:46.111Z,54.09
2016-11-15T06:55:26.809Z,54.09
2016-11-15T06:56:07.623Z,54.09
2016-11-15T06:56:48.326Z,54.19
2016-11-15T06:57:29.023Z,54.09
2016-11-15T06:58:09.820Z,54.09
2016-11-15T06:58:50.539Z,54.19
2016-11-15T06:59:31.228Z,53.9
2016-11-15T07:00:11.979Z,54.19
2016-11-15T07:00:52.845Z,54
2016-11-15T07:01:33.530Z,53.8
2016-11-15T07:02:14.214Z,54
2016-11-15T07:02:54.820Z,53.9
2016-11-15T07:03:35.628Z,53.9
2016-11-15T07:04:16.264Z,54.19
2016-11-15T07:04:56.899Z,54
2016-11-15T07:05:37.710Z,53.8
2016-11-15T07:06:18.481Z,53.9
2016-11-15T07:06:59.182Z,54
2016-11-15T07:07:39.995Z,54
2016-11-15T07:08:20.727Z,54
2016-11-15T07:09:01.537Z,54.09
2016-11-15T07:09:42.150Z,53.9
2016-11-15T07:10:22.907Z,54
2016-11-15T07:11:03.642Z,54.19
2016-11-15T07:11:44.297Z,54
2016-11-15T07:12:24.977Z,54
2016-11-15T07:13:05.650Z,54.09
2016-11-15T07:13:46.324Z,54.09
2016-11-15T07:14:27.019Z,53.9
2016-11-15T07:15:07.767Z,54.19
2016-11-15T07:15:48.483Z,54.19
2016-11-15T07:16:29.299Z,54.19
2016-11-15T07:17:10.333Z,54.19
2016-11-15T07:17:51.037Z,54.19
2016-11-15T07:18:31.728Z,54.19
2016-11-15T07:19:12.409Z,54
2016-11-15T07:19:53.182Z,54.09
2016-11-15T07:20:33.892Z,54.09
2016-11-15T07:21:14.638Z,54.19
2016-11-15T07:21:55.380Z,54
2016-11-15T07:22:35.940Z,53.9
2016-11-15T07:23:16.623Z,53.9
2016-11-15T07:23:57.375Z,54.19
2016-11-15T07:24:38.090Z,53.8
2016-11-15T07:25:18.807Z,53.8
2016-11-15T07:25:59.585Z,54
2016-11-15T07:26:40.450Z,54
2016-11-15T07:27:21.183Z,54.09
2016-11-15T07:28:01.955Z,54.09
2016-11-15T07:28:42.699Z,54.19
2016-11-15T07:29:23.516Z,54.09
2016-11-15T07:30:04.188Z,54.09
2016-11-15T07:30:44.903Z,54
2016-11-15T07:31:25.629Z,53.8
2016-11-15T07:32:06.369Z,54.28
2016-11-15T07:32:47.090Z,54.19
2016-11-15T07:33:27.788Z,54.09
2016-11-15T07:34:08.491Z,54.19
2016-11-15T07:34:49.209Z,54.19
2016-11-15T07:35:29.909Z,54.19
2016-11-15T07:36:10.637Z,53.8
2016-11-15T07:36:51.385Z,54
2016-11-15T07:37:32.249Z,54.09
2016-11-15T07:38:13.031Z,54.09
2016-11-15T07:38:53.771Z,54
2016-11-15T07:39:34.414Z,54
2016-11-15T07:40:15.207Z,54.19
2016-11-15T07:40:55.855Z,54.19
2016-11-15T07:41:36.492Z,54
2016-11-15T07:42:17.161Z,54
2016-11-15T07:42:57.811Z,53.9
2016-11-15T07:43:38.461Z,53.8
2016-11-15T07:44:19.047Z,54
2016-11-15T07:44:59.806Z,54.19
2016-11-15T07:45:40.522Z,53.9
2016-11-15T07:46:21.314Z,54.19
2016-11-15T07:47:01.996Z,54.19
2016-11-15T07:47:42.678Z,54.19
2016-11-15T07:48:23.413Z,54
2016-11-15T07:49:04.101Z,54
2016-11-15T07:49:44.892Z,54.09
2016-11-15T07:50:26.670Z,54
2016-11-15T07:51:08.190Z,54.09
2016-11-15T07:51:48.732Z,54.28
2016-11-15T07:52:29.348Z,54.09
2016-11-15T07:53:10.028Z,54.09
2016-11-15T07:53:50.685Z,54.19
2016-11-15T07:54:31.481Z,53.9
2016-11-15T07:55:12.288Z,54.09
2016-11-15T07:55:52.909Z,54
2016-11-15T07:56:33.536Z,54
2016-11-15T07:57:14.353Z,54
2016-11-15T07:57:55.157Z,54
2016-11-15T07:58:35.816Z,54
2016-11-15T07:59:16.621Z,54.09
2016-11-15T07:59:57.280Z,54.28
2016-11-15T08:00:38.200Z,54.86
2016-11-15T08:01:18.835Z,54.86
2016-11-15T08:01:59.640Z,55.15
2016-11-15T08:02:40.305Z,55.15
2016-11-15T08:03:21.029Z,55.15
2016-11-15T08:04:01.765Z,55.53
2016-11-15T08:04:42.533Z,55.44
2016-11-15T08:05:23.210Z,55.46
2016-11-15T08:06:04.006Z,55.56
2016-11-15T08:06:44.735Z,55.46
2016-11-15T08:07:25.489Z,55.85
2016-11-15T08:08:06.323Z,55.94
2016-11-15T08:08:46.948Z,55.76
2016-11-15T08:09:27.734Z,55.85
2016-11-15T08:10:08.475Z,55.66
2016-11-15T08:10:49.345Z,55.85
2016-11-15T08:11:30.266Z,55.66
2016-11-15T08:12:11.307Z,55.76
2016-11-15T08:12:52.149Z,55.46
2016-11-15T08:13:32.898Z,55.85
2016-11-15T08:14:13.602Z,55.85
2016-11-15T08:14:54.264Z,55.46
2016-11-15T08:15:34.913Z,55.76
2016-11-15T08:16:15.577Z,55.56
2016-11-15T08:16:56.206Z,55.68
2016-11-15T08:17:36.874Z,55.66
2016-11-15T08:18:17.693Z,55.98
2016-11-15T08:18:58.354Z,55.88
2016-11-15T08:19:39.001Z,55.49
2016-11-15T08:20:19.789Z,55.37
2016-11-15T08:21:00.494Z,55.68
2016-11-15T08:21:41.137Z,55.59
2016-11-15T08:22:21.833Z,55.49
2016-11-15T08:23:02.523Z,55.59
2016-11-15T08:23:43.367Z,55.4
2016-11-15T08:24:24.005Z,55.4
2016-11-15T08:25:04.604Z,55.11
2016-11-15T08:25:45.247Z,55.59
2016-11-15T08:26:26.097Z,55.88
2016-11-15T08:27:06.924Z,55.11
2016-11-15T08:27:47.728Z,55.68
2016-11-15T08:28:28.502Z,55.78
2016-11-15T08:29:09.314Z,55.11
2016-11-15T08:29:50.132Z,55.11
2016-11-15T08:30:30.861Z,55.2
2016-11-15T08:31:11.675Z,55.01
2016-11-15T08:31:52.476Z,55.3
2016-11-15T08:32:33.360Z,55.13
2016-11-15T08:33:13.974Z,55.33
2016-11-15T08:33:54.650Z,55.23
2016-11-15T08:34:35.306Z,55.23
2016-11-15T08:35:16.601Z,55.13
2016-11-15T08:35:57.261Z,54.94
2016-11-15T08:36:37.866Z,55.13
2016-11-15T08:37:18.576Z,54.75
2016-11-15T08:37:59.375Z,53.09
2016-11-15T08:38:40.027Z,48.35
2016-11-15T08:39:20.706Z,47.46
2016-11-15T08:40:01.373Z,45.32
2016-11-15T08:40:42.056Z,45.98
2016-11-15T08:41:22.748Z,46.07
2016-11-15T08:42:03.303Z,46.26
2016-11-15T08:42:44.022Z,47.49
2016-11-15T08:43:24.669Z,47.68
2016-11-15T08:44:05.530Z,48.44
2016-11-15T08:44:46.202Z,48.25
2016-11-15T08:45:26.929Z,48.35
2016-11-15T08:46:07.673Z,48.85
2016-11-15T08:46:48.437Z,49.33
2016-11-15T08:47:29.225Z,49.17
2016-11-15T08:48:10.001Z,48.88
2016-11-15T08:48:50.754Z,48.59
2016-11-15T08:49:31.520Z,49.48
2016-11-15T08:50:12.232Z,49.19
2016-11-15T08:50:52.968Z,49.19